Time;durP1;ratioP1;P1;durP2;ratioP2;P2;SDS_P1;SDS_P2;PMS_P1;PMS_P2;Temp;Humidity;BMP_temperature;BMP_pressure;BME280_temperature;BME280_humidity;BME280_pressure;Samples;Min_cycle;Max_cycle;Signal;HPM_P1;HPM_P2
2022/08/25 00:02:12;;;;;;;1.00;0.90;;;;;;;20.33;62.91;100292.06;4946636;29;20453;-51
2022/08/25 00:04:39;;;;;;;5.07;1.80;;;;;;;20.17;63.44;100287.81;4916489;29;20457;-51
2022/08/25 00:07:06;;;;;;;1.40;0.90;;;;;;;20.09;63.84;100293.72;4916569;29;21003;-51
2022/08/25 00:09:34;;;;;;;1.07;0.97;;;;;;;20.18;63.97;100289.53;4916420;29;20480;-51
2022/08/25 00:12:01;;;;;;;1.40;0.93;;;;;;;20.05;64.38;100294.91;4908792;29;20540;-52
2022/08/25 00:14:32;;;;;;;1.60;1.30;;;;;;;19.87;64.97;100291.59;4916097;29;20453;-52
2022/08/25 00:16:59;;;;;;;1.83;0.93;;;;;;;19.92;65.01;100294.00;4916523;29;20804;-51
2022/08/25 00:19:30;;;;;;;1.87;1.40;;;;;;;19.90;65.26;100287.84;4916150;29;20473;-51
2022/08/25 00:21:59;;;;;;;0.80;0.70;;;;;;;20.01;64.95;100286.16;4916359;29;20485;-52
2022/08/25 00:24:26;;;;;;;1.53;1.17;;;;;;;20.04;64.83;100290.47;4916238;29;20457;-52
2022/08/25 00:26:55;;;;;;;4.93;1.30;;;;;;;19.99;65.38;100281.81;4915963;29;20833;-51
2022/08/25 00:29:24;;;;;;;0.97;0.83;;;;;;;19.84;66.09;100283.72;4915926;29;20485;-51
2022/08/25 00:31:52;;;;;;;5.23;1.23;;;;;;;19.92;65.65;100289.47;4915660;29;20536;-51
2022/08/25 00:34:23;;;;;;;3.63;2.30;;;;;;;19.60;66.86;100291.63;4916141;29;20468;-52
2022/08/25 00:36:50;;;;;;;3.73;1.40;;;;;;;19.63;66.46;100287.84;4916058;29;20831;-52
2022/08/25 00:39:19;;;;;;;1.73;1.60;;;;;;;19.68;66.36;100296.50;4915956;29;20477;-52
2022/08/25 00:41:48;;;;;;;0.80;0.67;;;;;;;19.67;66.49;100290.25;4915922;29;20496;-50
2022/08/25 00:44:18;;;;;;;0.60;0.43;;;;;;;19.77;66.29;100294.06;4916125;29;20560;-50
2022/08/25 00:46:52;;;;;;;1.50;1.40;;;;;;;19.50;66.90;100301.25;4916035;29;20969;-51
2022/08/25 00:49:18;;;;;;;1.00;1.00;;;;;;;19.38;67.51;100294.81;4903480;29;20528;-51
2022/08/25 00:51:57;;;;;;;1.33;0.97;;;;;;;19.46;67.05;100299.69;4915911;29;20453;-52
2022/08/25 00:54:29;;;;;;;0.70;0.70;;;;;;;19.32;67.77;100295.19;4916139;29;20457;-53
2022/08/25 00:56:58;;;;;;;1.00;0.80;;;;;;;19.22;67.81;100304.88;4915792;29;20955;-52
2022/08/25 00:59:26;;;;;;;1.13;0.63;;;;;;;19.26;67.78;100300.13;4915936;29;20570;-52
2022/08/25 01:01:54;;;;;;;2.43;1.50;;;;;;;19.09;68.00;100304.78;4915870;29;20487;-53
2022/08/25 01:04:20;;;;;;;1.87;0.90;;;;;;;18.92;68.40;100307.69;4915841;29;20504;-52
2022/08/25 01:06:48;;;;;;;0.60;0.50;;;;;;;18.87;68.56;100309.78;4915531;29;20451;-53
2022/08/25 01:09:15;;;;;;;1.80;1.37;;;;;;;18.89;68.99;100310.53;4915843;29;20890;-52
2022/08/25 01:11:43;;;;;;;1.33;1.20;;;;;;;18.93;68.75;100310.28;4917869;29;20457;-52
2022/08/25 01:14:13;;;;;;;1.13;1.03;;;;;;;18.99;68.23;100314.41;4915974;29;20464;-53
2022/08/25 01:16:42;;;;;;;1.80;1.00;;;;;;;18.84;68.77;100315.38;4915622;29;20457;-52
2022/08/25 01:19:12;;;;;;;1.00;0.90;;;;;;;18.73;69.54;100323.25;4915602;29;20477;-53
2022/08/25 01:21:47;;;;;;;1.17;1.07;;;;;;;18.53;69.77;100319.91;4915791;29;20504;-52
2022/08/25 01:24:43;;;;;;;11.63;0.97;;;;;;;18.46;70.37;100317.69;4915542;29;20810;-52
2022/08/25 01:27:10;;;;;;;10.17;1.00;;;;;;;18.56;70.25;100322.41;4915579;29;20464;-52
2022/08/25 01:29:37;;;;;;;1.30;1.20;;;;;;;18.77;69.70;100319.38;4915973;29;21073;-52
2022/08/25 01:32:07;;;;;;;1.47;0.77;;;;;;;18.89;69.34;100319.50;4915597;29;20810;-53
2022/08/25 01:34:37;;;;;;;1.00;0.83;;;;;;;18.83;69.27;100327.97;4915601;29;20455;-52
2022/08/25 01:37:04;;;;;;;1.37;0.83;;;;;;;18.81;69.65;100320.94;4915661;29;20453;-52
2022/08/25 01:39:35;;;;;;;3.03;0.90;;;;;;;18.88;69.30;100323.16;4915535;29;20860;-52
2022/08/25 01:42:02;;;;;;;4.87;1.93;;;;;;;18.99;69.02;100327.88;4915352;29;20452;-53
2022/08/25 01:44:30;;;;;;;0.70;0.50;;;;;;;19.08;69.00;100318.34;4918627;29;20457;-52
2022/08/25 01:46:57;;;;;;;1.00;0.80;;;;;;;19.01;69.56;100317.00;4918946;29;20453;-53
2022/08/25 01:49:23;;;;;;;1.23;1.13;;;;;;;18.95;69.46;100315.56;4918770;29;20504;-52
2022/08/25 01:52:05;;;;;;;1.23;1.13;;;;;;;18.92;69.73;100318.47;4918604;29;20468;-53
2022/08/25 01:54:32;;;;;;;2.10;1.00;;;;;;;18.78;70.36;100323.84;4918577;29;20803;-52
2022/08/25 01:56:58;;;;;;;1.60;1.20;;;;;;;18.65;70.32;100310.25;4918762;29;20460;-52
2022/08/25 01:59:26;;;;;;;1.40;1.27;;;;;;;18.45;71.47;100313.25;4918740;29;20469;-53
2022/08/25 02:01:53;;;;;;;1.33;1.13;;;;;;;18.27;71.32;100309.88;4918675;29;20542;-52
2022/08/25 02:04:30;;;;;;;0.73;0.73;;;;;;;18.27;71.22;100318.81;4918536;29;20536;-52
2022/08/25 02:07:02;;;;;;;0.80;0.67;;;;;;;18.33;71.87;100318.41;4918261;29;20994;-52
2022/08/25 02:09:29;;;;;;;1.43;1.33;;;;;;;18.39;71.58;100319.03;4918565;29;20555;-52
2022/08/25 02:11:55;;;;;;;1.37;0.87;;;;;;;18.45;71.02;100316.81;4921397;29;20485;-52
2022/08/25 02:14:22;;;;;;;0.83;0.70;;;;;;;18.53;71.14;100314.53;4918626;29;20466;-52
2022/08/25 02:16:50;;;;;;;0.80;0.77;;;;;;;18.36;71.28;100320.06;4918270;29;20464;-52
2022/08/25 02:19:18;;;;;;;2.70;0.73;;;;;;;18.51;70.95;100319.16;4919747;29;21017;-52
2022/08/25 02:21:45;;;;;;;1.27;1.03;;;;;;;18.44;71.58;100315.09;4918311;29;20467;-52
2022/08/25 02:24:12;;;;;;;1.77;1.33;;;;;;;18.28;72.14;100314.28;4918278;29;20467;-52
2022/08/25 02:26:40;;;;;;;19.93;1.33;;;;;;;18.14;72.25;100320.50;4918247;29;20457;-52
2022/08/25 02:29:07;;;;;;;1.13;0.90;;;;;;;18.13;72.35;100312.50;4917777;29;20507;-52
2022/08/25 02:31:34;;;;;;;3.93;1.27;;;;;;;18.18;72.19;100319.34;4918004;29;20953;-52
2022/08/25 02:34:01;;;;;;;1.63;1.50;;;;;;;18.00;72.73;100321.31;4917824;29;20804;-52
2022/08/25 02:36:29;;;;;;;1.23;1.13;;;;;;;18.10;72.43;100318.94;4918196;29;20453;-52
2022/08/25 02:38:55;;;;;;;0.90;0.70;;;;;;;17.96;72.97;100311.69;4917965;29;20481;-51
2022/08/25 02:41:24;;;;;;;11.33;1.40;;;;;;;17.79;73.36;100317.16;4918010;29;20453;-52
2022/08/25 02:43:57;;;;;;;1.57;0.80;;;;;;;17.94;72.97;100316.25;4917891;29;20449;-52
2022/08/25 02:46:24;;;;;;;1.43;0.93;;;;;;;17.86;73.27;100315.88;4917764;29;20461;-52
2022/08/25 02:48:52;;;;;;;1.53;1.43;;;;;;;17.79;73.34;100318.97;4917769;29;20512;-51
2022/08/25 02:51:21;;;;;;;1.10;0.70;;;;;;;17.84;73.15;100316.91;4917965;29;20483;-52
2022/08/25 02:53:48;;;;;;;1.37;1.23;;;;;;;17.75;73.96;100310.25;4917657;29;20462;-52
2022/08/25 02:56:17;;;;;;;7.60;1.77;;;;;;;17.79;73.33;100305.53;4917089;29;20464;-52
2022/08/25 02:58:45;;;;;;;6.03;1.17;;;;;;;17.71;74.39;100306.00;4917335;29;20479;-51
2022/08/25 03:01:11;;;;;;;1.47;1.10;;;;;;;17.78;74.04;100302.00;4918906;29;20453;-52
2022/08/25 03:03:39;;;;;;;2.10;0.90;;;;;;;17.83;73.39;100301.75;4917564;29;20461;-52
2022/08/25 03:06:08;;;;;;;1.70;0.97;;;;;;;17.71;74.16;100308.69;4917498;29;20475;-52
2022/08/25 03:08:36;;;;;;;1.30;1.20;;;;;;;17.53;74.71;100301.63;4917110;29;21102;-52
2022/08/25 03:11:04;;;;;;;0.90;0.70;;;;;;;17.45;74.73;100296.72;4918761;29;20461;-50
2022/08/25 03:13:31;;;;;;;1.00;0.90;;;;;;;17.53;74.60;100296.25;4917803;29;20463;-51
2022/08/25 03:15:59;;;;;;;2.23;1.10;;;;;;;17.50;74.78;100300.00;4917580;29;20905;-50
2022/08/25 03:18:26;;;;;;;1.60;1.50;;;;;;;17.43;76.14;100295.94;4917149;29;20456;-50
2022/08/25 03:20:53;;;;;;;1.10;1.00;;;;;;;17.48;75.59;100293.84;4917242;29;20484;-51
2022/08/25 03:23:20;;;;;;;0.80;0.80;;;;;;;17.62;75.20;100295.72;4917152;29;20461;-51
2022/08/25 03:28:32;;;;;;;2.00;1.43;;;;;;;17.67;74.70;100297.19;4906890;29;20500;-51
2022/08/25 03:30:59;;;;;;;11.63;1.20;;;;;;;17.59;75.29;100303.97;4916756;29;20465;-51
2022/08/25 03:33:28;;;;;;;0.80;0.70;;;;;;;17.46;76.09;100303.81;4916984;29;20464;-51
2022/08/25 03:35:55;;;;;;;3.63;1.63;;;;;;;17.53;75.78;100307.00;4916817;29;20462;-51
2022/08/25 03:38:24;;;;;;;0.90;0.73;;;;;;;17.47;75.60;100302.84;4916776;29;20453;-51
2022/08/25 03:40:50;;;;;;;1.93;1.07;;;;;;;17.67;76.13;100299.88;4916600;29;20568;-50
2022/08/25 03:43:18;;;;;;;1.47;1.20;;;;;;;17.37;76.39;100291.75;4916606;29;20974;-51
2022/08/25 03:45:46;;;;;;;1.13;1.03;;;;;;;17.30;76.88;100285.00;4916538;29;20453;-51
2022/08/25 03:48:14;;;;;;;18.67;1.60;;;;;;;17.21;77.21;100273.91;4916541;29;20917;-51
2022/08/25 03:50:49;;;;;;;1.10;1.00;;;;;;;17.19;77.67;100276.69;4916589;29;20457;-51
2022/08/25 03:53:18;;;;;;;1.50;1.40;;;;;;;17.38;76.80;100271.13;4916586;29;20452;-51
2022/08/25 03:55:44;;;;;;;13.53;1.53;;;;;;;17.52;76.23;100276.56;4916614;29;20453;-50
2022/08/25 03:58:11;;;;;;;1.37;1.20;;;;;;;17.62;76.16;100280.47;4916578;29;20453;-51
2022/08/25 04:00:38;;;;;;;1.13;1.03;;;;;;;17.67;75.79;100269.44;4916466;29;20452;-51
2022/08/25 04:03:04;;;;;;;4.80;1.73;;;;;;;17.76;75.13;100277.00;4916535;29;20475;-51
2022/08/25 04:05:31;;;;;;;0.77;0.73;;;;;;;17.82;75.59;100281.16;4905345;29;20449;-50
2022/08/25 04:08:00;;;;;;;11.43;1.37;;;;;;;17.90;75.20;100287.81;4915240;29;20496;-51
2022/08/25 04:10:27;;;;;;;1.43;1.27;;;;;;;17.80;75.44;100283.06;4916447;29;20532;-50
2022/08/25 04:12:54;;;;;;;5.43;1.60;;;;;;;17.52;76.50;100291.84;4918412;29;20453;-50
2022/08/25 04:15:22;;;;;;;2.90;1.23;;;;;;;17.42;76.57;100289.69;4916313;29;20453;-51
2022/08/25 04:17:57;;;;;;;8.30;1.40;;;;;;;17.33;77.23;100287.50;4916146;29;20453;-51
2022/08/25 04:20:24;;;;;;;21.73;1.53;;;;;;;17.27;77.41;100293.25;4916044;29;20481;-50
2022/08/25 04:22:50;;;;;;;5.17;1.47;;;;;;;17.32;77.20;100290.28;4916221;29;20832;-51
2022/08/25 04:25:17;;;;;;;11.40;1.43;;;;;;;17.30;77.78;100292.19;4916301;29;20457;-51
2022/08/25 04:27:43;;;;;;;7.40;2.10;;;;;;;17.19;77.70;100303.53;4916001;29;20460;-51
2022/08/25 04:30:10;;;;;;;5.67;1.20;;;;;;;17.20;77.22;100294.53;4916275;29;20503;-51
2022/08/25 04:32:36;;;;;;;9.70;1.63;;;;;;;17.97;73.90;100299.97;4916725;29;20457;-51
2022/08/25 04:35:04;;;;;;;1.20;1.10;;;;;;;17.42;76.08;100299.56;4915899;29;20472;-51
2022/08/25 04:37:31;;;;;;;2.30;1.77;;;;;;;17.26;76.43;100296.00;4915977;29;21003;-51
2022/08/25 04:39:57;;;;;;;3.57;2.20;;;;;;;17.24;76.84;100300.59;4916327;29;20473;-51
2022/08/25 04:42:25;;;;;;;1.60;0.93;;;;;;;17.26;76.51;100301.38;4915965;29;20453;-51
2022/08/25 04:44:53;;;;;;;1.00;0.90;;;;;;;17.25;77.00;100303.19;4916006;29;20453;-51
2022/08/25 04:47:19;;;;;;;1.37;1.27;;;;;;;17.20;77.30;100297.22;4915867;29;20453;-51
2022/08/25 04:49:46;;;;;;;1.83;1.10;;;;;;;17.25;77.26;100297.81;4915739;29;20555;-50
2022/08/25 04:52:13;;;;;;;3.77;0.70;;;;;;;17.20;77.60;100294.53;4915847;29;20958;-51
2022/08/25 04:54:41;;;;;;;3.70;1.43;;;;;;;17.27;77.46;100290.56;4915799;29;20457;-51
2022/08/25 04:57:08;;;;;;;2.80;1.80;;;;;;;17.15;78.14;100296.63;4915878;29;20509;-51
2022/08/25 04:59:34;;;;;;;3.47;1.30;;;;;;;17.24;78.12;100295.22;4915818;29;20484;-51
2022/08/25 05:02:01;;;;;;;10.00;1.63;;;;;;;17.33;78.02;100292.88;4915679;29;20461;-51
2022/08/25 05:04:30;;;;;;;11.63;1.40;;;;;;;17.17;78.48;100300.94;4915824;29;20457;-51
2022/08/25 05:06:57;;;;;;;3.90;2.00;;;;;;;17.28;77.99;100302.16;4915482;29;20982;-51
2022/08/25 05:09:24;;;;;;;37.30;1.90;;;;;;;17.33;78.08;100298.25;4915719;29;20508;-51
2022/08/25 05:11:52;;;;;;;1.67;1.30;;;;;;;17.42;77.66;100302.25;4917826;29;20461;-51
2022/08/25 05:14:21;;;;;;;2.40;1.93;;;;;;;17.35;78.22;100299.03;4915634;29;20457;-52
2022/08/25 05:16:52;;;;;;;1.57;1.03;;;;;;;17.59;77.89;100302.16;4903523;29;20461;-51
2022/08/25 05:19:18;;;;;;;2.90;2.30;;;;;;;18.06;76.33;100294.03;4918419;29;20562;-51
2022/08/25 05:21:45;;;;;;;1.90;1.80;;;;;;;18.48;75.31;100288.84;4919405;29;20475;-52
2022/08/25 05:24:11;;;;;;;2.97;1.63;;;;;;;19.01;73.01;100284.66;4919045;29;20466;-52
2022/08/25 05:26:38;;;;;;;4.90;1.70;;;;;;;19.45;71.43;100273.69;4919099;29;20457;-52
2022/08/25 05:29:05;;;;;;;4.37;1.70;;;;;;;19.86;69.86;100279.06;4918510;29;20506;-52
2022/08/25 05:31:33;;;;;;;3.50;1.00;;;;;;;20.27;68.00;100283.50;4919237;29;20491;-52
2022/08/25 05:34:06;;;;;;;1.53;1.30;;;;;;;20.80;66.03;100285.19;4919101;29;20453;-52
2022/08/25 05:36:34;;;;;;;2.43;2.17;;;;;;;21.17;64.59;100290.66;4918951;29;20464;-52
2022/08/25 05:39:00;;;;;;;4.53;1.80;;;;;;;21.35;63.98;100297.44;4918732;29;20998;-52
2022/08/25 05:41:29;;;;;;;1.80;1.70;;;;;;;21.37;63.48;100300.03;4918788;29;20456;-52
2022/08/25 05:43:56;;;;;;;8.63;2.40;;;;;;;21.59;62.17;100298.34;4918823;29;20943;-53
2022/08/25 05:46:23;;;;;;;13.40;1.60;;;;;;;21.65;61.64;100299.72;4918810;29;20457;-51
2022/08/25 05:48:50;;;;;;;2.83;1.90;;;;;;;21.75;60.97;100299.91;4918679;29;20522;-52
2022/08/25 05:51:17;;;;;;;2.67;2.57;;;;;;;21.88;61.04;100289.91;4949116;29;20549;-51
2022/08/25 05:53:46;;;;;;;1.70;1.60;;;;;;;21.76;61.30;100293.53;4918587;29;20467;-51
2022/08/25 05:56:13;;;;;;;9.47;4.53;;;;;;;21.89;60.61;100283.50;4918592;29;20457;-51
2022/08/25 05:58:41;;;;;;;2.40;2.07;;;;;;;22.13;60.45;100286.22;4918449;29;20970;-52
2022/08/25 06:03:54;;;;;;;8.43;1.70;;;;;;;21.98;60.90;100279.25;4906060;29;20484;-51
2022/08/25 06:06:23;;;;;;;3.00;1.80;;;;;;;21.68;61.76;100280.59;4918341;29;20750;-52
2022/08/25 06:08:50;;;;;;;2.30;1.93;;;;;;;21.69;61.97;100276.91;4918368;29;20591;-52
2022/08/25 06:11:17;;;;;;;7.40;1.97;;;;;;;21.62;62.13;100270.19;4920525;29;20876;-51
2022/08/25 06:13:44;;;;;;;10.23;2.60;;;;;;;21.56;62.42;100268.84;4918369;29;20547;-51
2022/08/25 06:16:10;;;;;;;9.03;1.43;;;;;;;21.59;62.77;100267.72;4918080;29;20464;-51
2022/08/25 06:18:37;;;;;;;5.53;2.30;;;;;;;21.51;63.24;100272.84;4918072;29;20560;-51
2022/08/25 06:21:11;;;;;;;7.83;2.33;;;;;;;21.46;63.03;100267.78;4918035;29;20465;-52
2022/08/25 06:23:39;;;;;;;2.57;2.37;;;;;;;21.64;63.14;100267.38;4918272;29;20460;-51
2022/08/25 06:26:06;;;;;;;1.43;1.27;;;;;;;21.59;63.25;100268.59;4918302;29;20461;-52
2022/08/25 06:28:32;;;;;;;1.30;1.10;;;;;;;21.71;62.80;100257.84;4918136;29;20484;-52
2022/08/25 06:31:00;;;;;;;20.80;1.70;;;;;;;21.50;64.32;100254.88;4916821;29;20560;-51
2022/08/25 06:33:28;;;;;;;3.67;2.03;;;;;;;21.59;64.01;100265.03;4918007;29;20825;-52
2022/08/25 06:35:55;;;;;;;25.63;2.93;;;;;;;21.80;63.92;100268.84;4917728;29;20567;-52
2022/08/25 06:38:22;;;;;;;17.07;4.00;;;;;;;22.01;62.89;100268.16;4918063;29;20453;-56
2022/08/25 06:40:50;;;;;;;6.23;1.90;;;;;;;21.81;63.49;100267.84;4917943;29;20449;-52
2022/08/25 06:43:18;;;;;;;1.93;1.57;;;;;;;22.14;62.79;100264.44;4918378;29;20503;-53
2022/08/25 06:45:45;;;;;;;10.53;2.70;;;;;;;22.06;62.91;100257.88;4917735;29;20457;-53
2022/08/25 06:48:11;;;;;;;19.00;2.27;;;;;;;21.99;63.00;100256.59;4917579;29;20857;-53
2022/08/25 06:50:39;;;;;;;2.80;1.83;;;;;;;22.55;61.82;100259.50;4917452;29;21020;-53
2022/08/25 06:53:05;;;;;;;1.93;1.57;;;;;;;22.52;61.37;100257.03;4917824;29;20453;-53
2022/08/25 06:55:33;;;;;;;2.00;1.90;;;;;;;22.42;62.41;100252.31;4917620;29;20457;-54
2022/08/25 06:58:02;;;;;;;2.80;1.70;;;;;;;22.31;63.06;100244.16;4917540;29;20939;-53
2022/08/25 07:00:30;;;;;;;1.80;1.70;;;;;;;22.52;62.59;100243.47;4917439;29;20472;-53
2022/08/25 07:02:59;;;;;;;3.63;1.43;;;;;;;22.49;62.63;100243.72;4917362;29;20463;-54
2022/08/25 07:05:27;;;;;;;1.17;1.07;;;;;;;22.69;62.21;100246.56;4917266;29;20449;-53
2022/08/25 07:08:10;;;;;;;4.77;1.83;;;;;;;22.94;62.15;100247.34;4917919;29;20460;-53
2022/08/25 07:10:36;;;;;;;1.33;1.23;;;;;;;22.97;62.48;100236.25;4917842;29;20576;-54
2022/08/25 07:13:03;;;;;;;1.50;1.40;;;;;;;22.90;62.02;100248.59;4919308;29;20457;-52
2022/08/25 07:15:29;;;;;;;2.67;1.90;;;;;;;23.18;62.01;100236.38;4917073;29;20453;-53
2022/08/25 07:17:56;;;;;;;3.50;2.43;;;;;;;23.37;61.59;100231.13;4916941;29;20858;-53
2022/08/25 07:20:23;;;;;;;2.83;2.60;;;;;;;23.38;62.33;100232.00;4917422;29;20469;-52
2022/08/25 07:22:51;;;;;;;18.43;2.27;;;;;;;23.79;60.99;100236.72;4917096;29;20492;-52
2022/08/25 07:25:17;;;;;;;1.80;1.63;;;;;;;23.86;60.75;100237.94;4915885;29;20457;-53
2022/08/25 07:27:44;;;;;;;2.83;2.60;;;;;;;23.72;62.04;100235.53;4916794;29;20591;-52
2022/08/25 07:30:11;;;;;;;3.40;1.80;;;;;;;23.92;62.09;100235.53;4917161;29;20497;-52
2022/08/25 07:32:38;;;;;;;19.63;2.60;;;;;;;24.15;61.84;100235.44;4916709;29;20943;-51
2022/08/25 07:35:26;;;;;;;13.60;2.00;;;;;;;24.29;61.93;100234.25;4916999;29;20476;-52
2022/08/25 07:38:05;;;;;;;2.27;2.13;;;;;;;24.64;62.39;100233.91;4905323;29;20962;-52
2022/08/25 07:40:36;;;;;;;2.93;1.90;;;;;;;24.93;61.04;100226.72;4916343;29;20506;-52
2022/08/25 07:43:08;;;;;;;8.63;2.73;;;;;;;25.32;62.74;100232.34;4916714;29;20995;-52
2022/08/25 07:45:38;;;;;;;2.73;2.00;;;;;;;25.34;63.87;100233.91;4916587;29;20461;-52
2022/08/25 07:48:18;;;;;;;14.00;3.90;;;;;;;25.58;63.98;100222.63;4916632;29;20530;-52
2022/08/25 07:50:46;;;;;;;2.47;2.23;;;;;;;25.71;64.04;100229.72;4916388;29;20489;-52
2022/08/25 07:53:14;;;;;;;3.97;2.33;;;;;;;25.60;64.70;100233.38;4916813;29;20951;-52
2022/08/25 07:55:41;;;;;;;2.97;2.67;;;;;;;25.90;63.81;100229.69;4916589;29;20457;-52
2022/08/25 07:58:12;;;;;;;2.73;2.60;;;;;;;25.75;64.12;100228.41;4916639;29;20832;-52
2022/08/25 08:00:40;;;;;;;2.57;2.43;;;;;;;25.87;63.42;100235.44;4916350;29;20955;-53
2022/08/25 08:03:09;;;;;;;4.70;3.00;;;;;;;26.17;63.36;100240.72;4916343;29;20453;-52
2022/08/25 08:05:45;;;;;;;2.90;2.70;;;;;;;25.97;63.21;100231.72;4916242;29;20847;-53
2022/08/25 08:08:15;;;;;;;3.87;3.33;;;;;;;26.15;62.91;100239.16;4916499;29;20460;-53
2022/08/25 08:10:44;;;;;;;3.47;3.27;;;;;;;26.21;63.44;100244.91;4916212;29;21005;-53
2022/08/25 08:13:31;;;;;;;2.37;1.90;;;;;;;26.49;62.12;100234.13;4915478;29;20457;-53
2022/08/25 08:16:08;;;;;;;3.07;2.87;;;;;;;26.60;61.75;100235.81;4916234;29;20997;-52
2022/08/25 08:18:34;;;;;;;2.67;2.47;;;;;;;26.46;62.06;100240.75;4916029;29;20469;-52
2022/08/25 08:21:01;;;;;;;3.37;3.07;;;;;;;26.78;61.44;100234.91;4916336;29;20453;-52
2022/08/25 08:23:29;;;;;;;5.00;3.97;;;;;;;26.95;60.78;100233.25;4916242;29;20508;-53
2022/08/25 08:25:56;;;;;;;5.70;2.30;;;;;;;26.69;61.14;100229.47;4916021;29;20449;-53
2022/08/25 08:28:26;;;;;;;8.40;2.30;;;;;;;27.12;60.29;100221.53;4916024;29;20461;-53
2022/08/25 08:30:53;;;;;;;5.90;3.53;;;;;;;27.27;60.04;100226.50;4915932;29;20842;-54
2022/08/25 08:33:22;;;;;;;2.50;2.40;;;;;;;27.01;59.69;100226.38;4916036;29;20456;-53
2022/08/25 08:36:08;;;;;;;4.00;1.70;;;;;;;27.45;58.33;100222.81;4915928;29;20464;-53
2022/08/25 08:38:36;;;;;;;2.60;2.40;;;;;;;27.55;58.41;100232.78;4915872;29;20479;-53
2022/08/25 08:44:59;;;;;;;5.80;1.93;;;;;;;27.37;58.51;100219.97;4903974;29;20457;-54
2022/08/25 08:47:55;;;;;;;2.90;2.70;;;;;;;27.50;58.23;100205.94;4916073;29;20544;-54
2022/08/25 08:50:28;;;;;;;3.87;2.43;;;;;;;27.64;58.14;100202.72;4915821;29;20501;-53
2022/08/25 08:53:15;;;;;;;5.87;3.13;;;;;;;27.51;58.47;100212.25;4917258;29;20459;-54
2022/08/25 08:55:52;;;;;;;2.63;2.40;;;;;;;27.67;58.01;100207.84;4920543;29;20481;-52
2022/08/25 08:58:20;;;;;;;3.23;2.97;;;;;;;27.63;58.67;100208.28;4919741;29;21055;-53
2022/08/25 09:00:57;;;;;;;5.27;2.87;;;;;;;27.74;58.50;100203.50;4919906;29;20476;-53
2022/08/25 09:03:28;;;;;;;3.13;2.93;;;;;;;27.87;58.01;100208.56;4919661;29;20453;-53
2022/08/25 09:05:58;;;;;;;3.87;3.43;;;;;;;27.63;58.35;100202.84;4919439;29;20477;-53
2022/08/25 09:08:25;;;;;;;6.13;2.40;;;;;;;28.07;57.72;100194.72;4919670;29;20452;-54
2022/08/25 09:11:21;;;;;;;6.60;2.40;;;;;;;28.41;57.07;100206.63;4919647;29;20531;-53
2022/08/25 09:14:17;;;;;;;4.40;4.00;;;;;;;28.39;56.39;100196.88;4908441;29;20465;-53
2022/08/25 09:17:00;;;;;;;3.30;3.10;;;;;;;28.51;53.66;100198.31;4898541;29;20452;-54
2022/08/25 09:19:40;;;;;;;2.63;2.43;;;;;;;28.32;54.05;100199.38;4919437;29;20536;-53
2022/08/25 09:22:22;;;;;;;4.13;2.93;;;;;;;28.51;55.10;100190.97;4919495;29;20465;-53
2022/08/25 09:25:09;;;;;;;3.53;1.97;;;;;;;28.44;54.98;100189.91;4907140;29;20461;-54
2022/08/25 09:28:02;;;;;;;2.50;2.40;;;;;;;28.74;52.53;100188.53;4919294;29;20448;-54
2022/08/25 09:30:57;;;;;;;2.77;2.20;;;;;;;28.78;52.21;100176.25;4918931;29;20505;-53
2022/08/25 09:33:27;;;;;;;2.83;2.63;;;;;;;28.65;52.29;100181.31;4909051;29;20449;-54
2022/08/25 09:35:55;;;;;;;3.83;3.60;;;;;;;28.37;52.40;100175.13;4919026;29;20524;-53
2022/08/25 09:38:25;;;;;;;1.90;1.77;;;;;;;28.21;51.99;100173.13;4919093;29;20453;-54
2022/08/25 09:40:54;;;;;;;2.70;2.50;;;;;;;28.74;51.03;100174.84;4918901;29;20452;-54
2022/08/25 09:43:30;;;;;;;4.30;3.17;;;;;;;28.57;51.75;100162.09;4919009;29;20511;-54
2022/08/25 09:46:01;;;;;;;1.90;1.80;;;;;;;28.69;51.16;100165.41;4918828;29;20539;-54
2022/08/25 09:48:37;;;;;;;3.70;2.53;;;;;;;28.67;51.31;100159.25;4918903;29;20468;-54
2022/08/25 09:51:29;;;;;;;2.20;2.10;;;;;;;28.76;50.73;100147.31;4906826;29;20496;-54
2022/08/25 09:54:17;;;;;;;2.27;2.17;;;;;;;28.43;50.89;100157.25;4918877;29;20448;-54
2022/08/25 09:56:54;;;;;;;2.77;2.57;;;;;;;28.38;51.00;100145.94;4918613;29;20499;-54
2022/08/25 09:59:34;;;;;;;2.70;2.50;;;;;;;28.55;48.53;100151.34;4907640;29;20477;-54
2022/08/25 10:02:22;;;;;;;2.37;2.17;;;;;;;28.70;47.96;100139.78;4918579;29;20500;-54
2022/08/25 10:04:49;;;;;;;1.97;1.83;;;;;;;29.40;46.00;100137.63;4918562;29;20456;-54
2022/08/25 10:07:29;;;;;;;4.17;2.77;;;;;;;29.20;48.05;100148.03;4918509;29;20970;-54
2022/08/25 10:10:03;;;;;;;1.83;1.73;;;;;;;29.19;48.40;100138.06;4918796;29;20587;-54
2022/08/25 10:12:38;;;;;;;3.20;2.10;;;;;;;29.62;47.34;100137.00;4920610;29;20448;-54
2022/08/25 10:15:30;;;;;;;1.70;1.60;;;;;;;29.78;46.52;100134.25;4918359;29;20456;-54
2022/08/25 10:18:20;;;;;;;1.73;1.63;;;;;;;29.51;47.52;100145.56;4918299;29;20464;-54
2022/08/25 10:21:13;;;;;;;2.13;2.03;;;;;;;29.50;45.91;100141.09;4918222;29;20812;-54
2022/08/25 10:23:48;;;;;;;2.23;2.13;;;;;;;28.97;48.09;100138.72;4908846;29;20540;-54
2022/08/25 10:26:35;;;;;;;2.10;2.00;;;;;;;29.37;47.23;100130.59;4918148;29;20855;-54
2022/08/25 10:29:21;;;;;;;2.10;1.90;;;;;;;29.86;46.14;100125.16;4918176;29;20511;-54
2022/08/25 10:32:06;;;;;;;5.07;2.50;;;;;;;29.25;46.47;100131.09;4918224;29;20500;-53
2022/08/25 10:34:46;;;;;;;2.60;2.03;;;;;;;29.60;46.62;100122.59;4917854;29;20460;-54
2022/08/25 10:37:43;;;;;;;1.73;1.63;;;;;;;29.32;46.89;100122.00;4917970;29;20503;-54
2022/08/25 10:40:44;;;;;;;3.80;1.93;;;;;;;29.82;45.75;100109.25;4918124;29;20461;-54
2022/08/25 10:43:30;;;;;;;2.63;2.43;;;;;;;30.12;44.50;100125.00;4908241;29;20468;-53
2022/08/25 10:46:12;;;;;;;1.70;1.60;;;;;;;29.67;43.58;100118.16;4917777;29;20463;-54
2022/08/25 10:49:01;;;;;;;8.43;2.20;;;;;;;29.73;44.36;100106.50;4917657;29;21291;-54
2022/08/25 10:51:40;;;;;;;1.93;1.47;;;;;;;29.56;44.06;100103.94;4917716;29;21073;-53
2022/08/25 10:54:14;;;;;;;8.10;1.43;;;;;;;29.41;44.58;100096.34;4917602;29;20453;-53
2022/08/25 10:56:48;;;;;;;1.73;1.63;;;;;;;29.50;44.94;100089.03;4917538;29;20456;-54
2022/08/25 10:59:24;;;;;;;1.90;1.80;;;;;;;29.87;44.06;100090.38;4917524;29;20847;-54
2022/08/25 11:02:14;;;;;;;2.60;2.50;;;;;;;30.17;43.30;100086.09;4917527;29;20473;-54
2022/08/25 11:04:51;;;;;;;2.23;1.77;;;;;;;30.07;43.21;100087.13;4919576;29;20832;-54
2022/08/25 11:07:26;;;;;;;9.53;1.20;;;;;;;29.98;42.65;100082.66;4907295;29;20449;-53
2022/08/25 11:09:58;;;;;;;2.57;1.63;;;;;;;30.13;41.70;100090.19;4917302;29;20480;-53
2022/08/25 11:12:59;;;;;;;1.90;1.80;;;;;;;30.28;42.92;100083.81;4919988;29;20452;-54
2022/08/25 11:15:35;;;;;;;2.13;2.03;;;;;;;30.40;42.12;100080.69;4886452;29;20540;-54
2022/08/25 11:18:07;;;;;;;2.13;1.90;;;;;;;30.38;42.84;100080.88;4917272;29;20453;-54
2022/08/25 11:21:15;;;;;;;1.93;1.83;;;;;;;30.18;42.09;100066.72;4917361;29;20449;-54
2022/08/25 11:24:08;;;;;;;1.97;1.87;;;;;;;30.34;41.63;100069.41;4907140;29;20508;-54
2022/08/25 11:26:36;;;;;;;2.50;2.30;;;;;;;30.71;40.43;100076.16;4917076;29;20453;-54
2022/08/25 11:29:13;;;;;;;2.63;2.43;;;;;;;30.13;40.97;100073.75;4916838;29;20480;-54
2022/08/25 11:31:44;;;;;;;3.07;2.87;;;;;;;30.36;41.49;100056.38;4916796;29;20488;-54
2022/08/25 11:34:20;;;;;;;1.80;1.70;;;;;;;30.63;41.03;100056.97;4917044;29;20476;-54
2022/08/25 11:37:02;;;;;;;2.03;1.90;;;;;;;30.71;41.26;100056.09;4916868;29;20432;-54
2022/08/25 11:39:50;;;;;;;2.00;1.90;;;;;;;30.87;41.12;100051.38;4916703;29;20469;-53
2022/08/25 11:42:44;;;;;;;3.27;1.90;;;;;;;30.98;40.90;100051.97;4916767;29;20895;-54
2022/08/25 11:45:38;;;;;;;3.07;2.77;;;;;;;30.90;40.13;100052.88;4916851;29;20449;-54
2022/08/25 11:48:28;;;;;;;2.30;1.93;;;;;;;31.07;40.36;100045.38;4907108;29;20453;-54
2022/08/25 11:51:11;;;;;;;1.20;1.10;;;;;;;31.15;39.78;100045.34;4916732;29;20497;-54
2022/08/25 11:53:40;;;;;;;4.80;1.50;;;;;;;30.33;40.57;100043.00;4916619;29;20453;-54
2022/08/25 11:56:31;;;;;;;2.83;2.50;;;;;;;30.17;41.47;100042.22;4916676;29;20532;-54